createdAt,value
2022-10-13T00:01:44.821Z,10.43
2022-10-13T00:05:11.005Z,10.17
2022-10-13T00:08:35.312Z,10.50
2022-10-13T00:11:59.861Z,11.37
2022-10-13T00:15:26.285Z,11.83
2022-10-13T00:18:51.074Z,11.70
2022-10-13T00:22:17.041Z,10.60
2022-10-13T00:25:44.448Z,12.40
2022-10-13T00:29:08.996Z,10.80
2022-10-13T00:32:32.875Z,11.27
2022-10-13T00:35:56.942Z,10.30
2022-10-13T00:39:22.238Z,11.17
2022-10-13T00:42:45.825Z,9.50
2022-10-13T00:46:09.898Z,11.40
2022-10-13T00:49:33.878Z,11.13
2022-10-13T00:53:02.747Z,11.20
2022-10-13T00:56:30.286Z,10.17
2022-10-13T00:59:54.268Z,12.27
2022-10-13T01:03:19.542Z,11.33
2022-10-13T01:06:44.768Z,11.33
2022-10-13T01:10:11.142Z,11.67
2022-10-13T01:13:42.154Z,10.50
2022-10-13T01:17:13.839Z,12.20
2022-10-13T01:21:18.310Z,11.53
2022-10-13T01:24:49.737Z,11.37
2022-10-13T01:28:27.604Z,12.03
2022-10-13T01:32:02.760Z,11.23
2022-10-13T01:35:36.965Z,10.40
2022-10-13T01:39:06.591Z,10.67
2022-10-13T01:42:37.207Z,12.67
2022-10-13T01:46:06.851Z,11.50
2022-10-13T01:49:35.382Z,10.73
2022-10-13T01:53:02.094Z,11.10
2022-10-13T01:56:26.074Z,11.20
2022-10-13T01:59:50.025Z,10.70
2022-10-13T02:03:24.672Z,11.87
2022-10-13T02:06:54.705Z,11.13
2022-10-13T02:10:27.690Z,11.00
2022-10-13T02:13:58.627Z,11.87
2022-10-13T02:17:27.042Z,11.80
2022-10-13T02:20:52.126Z,11.30
2022-10-13T02:24:17.599Z,10.47
2022-10-13T02:27:42.613Z,11.00
2022-10-13T02:31:09.301Z,11.77
2022-10-13T02:34:33.024Z,11.50
2022-10-13T02:37:57.014Z,13.33
2022-10-13T02:41:22.580Z,11.30
2022-10-13T02:44:47.064Z,12.20
2022-10-13T02:48:11.607Z,11.90
2022-10-13T02:51:39.836Z,12.00
2022-10-13T02:55:04.997Z,11.87
2022-10-13T02:58:30.369Z,11.80
2022-10-13T03:01:55.205Z,11.80
2022-10-13T03:05:20.295Z,10.53
2022-10-13T03:08:44.073Z,11.00
2022-10-13T03:12:08.620Z,12.07
2022-10-13T03:15:34.406Z,10.93
2022-10-13T03:19:00.121Z,11.23
2022-10-13T03:22:24.317Z,11.57
2022-10-13T03:25:49.221Z,11.47
2022-10-13T03:29:15.157Z,11.50
2022-10-13T03:32:40.578Z,12.67
2022-10-13T03:36:07.189Z,12.27
2022-10-13T03:39:31.091Z,11.67
2022-10-13T03:42:55.282Z,11.00
2022-10-13T03:46:19.772Z,13.40
2022-10-13T03:49:45.449Z,11.27
2022-10-13T03:53:12.530Z,12.50
2022-10-13T03:56:37.214Z,14.37
2022-10-13T04:00:01.611Z,12.90
2022-10-13T04:03:26.082Z,13.20
2022-10-13T04:06:51.594Z,13.10
2022-10-13T04:10:16.201Z,14.80
2022-10-13T04:13:40.278Z,12.87
2022-10-13T04:17:04.210Z,11.60
2022-10-13T04:20:30.494Z,13.53
2022-10-13T04:23:58.139Z,13.30
2022-10-13T04:27:23.743Z,12.43
2022-10-13T04:30:49.602Z,13.30
2022-10-13T04:34:14.232Z,12.40
2022-10-13T04:37:42.767Z,12.23
2022-10-13T04:41:11.963Z,12.37
2022-10-13T04:44:36.157Z,13.67
2022-10-13T04:48:02.198Z,12.47
2022-10-13T04:51:27.202Z,11.60
2022-10-13T04:54:51.136Z,11.83
2022-10-13T04:58:16.536Z,12.07
2022-10-13T05:01:40.177Z,12.90
2022-10-13T05:05:09.285Z,11.07
2022-10-13T05:08:33.855Z,12.57
2022-10-13T05:11:58.287Z,11.90
2022-10-13T05:15:23.674Z,12.27
2022-10-13T05:18:49.193Z,11.43
2022-10-13T05:22:12.863Z,12.50
2022-10-13T05:25:38.718Z,12.07
2022-10-13T05:29:03.603Z,12.67
2022-10-13T05:32:29.318Z,10.77
2022-10-13T05:35:53.215Z,12.53
2022-10-13T05:39:17.515Z,11.83
2022-10-13T05:42:41.131Z,11.60
2022-10-13T05:46:07.988Z,12.57
2022-10-13T05:49:36.298Z,11.23
2022-10-13T05:52:59.845Z,11.93
2022-10-13T05:56:26.955Z,12.97
2022-10-13T05:59:54.397Z,11.57
2022-10-13T06:03:22.922Z,13.37
2022-10-13T06:06:49.518Z,11.57
2022-10-13T06:10:13.491Z,12.60
2022-10-13T06:13:37.183Z,10.90
2022-10-13T06:17:00.880Z,11.17
2022-10-13T06:20:24.425Z,11.13
2022-10-13T06:23:49.351Z,12.40
2022-10-13T06:27:15.224Z,12.13
2022-10-13T06:30:39.549Z,11.83
2022-10-13T06:34:03.394Z,10.83
2022-10-13T06:37:27.604Z,11.57
2022-10-13T06:40:52.614Z,12.10
2022-10-13T06:44:17.569Z,10.40
2022-10-13T06:47:41.222Z,10.40
2022-10-13T06:51:06.498Z,11.13
2022-10-13T06:54:30.576Z,10.43
2022-10-13T06:57:55.433Z,10.20
2022-10-13T07:01:19.073Z,11.67
2022-10-13T07:04:42.629Z,11.10
2022-10-13T07:08:06.256Z,10.37
2022-10-13T07:11:29.923Z,10.13
2022-10-13T07:14:57.356Z,11.40
2022-10-13T07:18:21.382Z,9.33
2022-10-13T07:21:44.999Z,11.13
2022-10-13T07:25:09.786Z,10.63
2022-10-13T07:28:33.493Z,11.10
2022-10-13T07:31:58.565Z,10.63
2022-10-13T07:35:29.668Z,10.90
2022-10-13T07:38:54.681Z,10.70
2022-10-13T07:42:18.386Z,10.23
2022-10-13T07:45:41.916Z,9.80
2022-10-13T07:49:06.768Z,9.67
2022-10-13T07:52:30.538Z,10.47
2022-10-13T07:55:54.090Z,9.83
2022-10-13T07:59:17.700Z,10.60
2022-10-13T08:02:41.331Z,10.10
2022-10-13T08:06:08.044Z,8.57
2022-10-13T08:09:31.682Z,10.17
2022-10-13T08:12:55.256Z,10.17
2022-10-13T08:16:18.914Z,9.20
2022-10-13T08:19:42.435Z,9.50
2022-10-13T08:23:07.780Z,9.27
2022-10-13T08:26:31.783Z,8.80
2022-10-13T08:29:55.761Z,8.93
2022-10-13T08:33:19.361Z,9.50
2022-10-13T08:36:43.633Z,8.60
2022-10-13T08:40:14.239Z,10.23
2022-10-13T08:43:49.061Z,9.30
2022-10-13T08:47:30.669Z,7.90
2022-10-13T08:50:57.627Z,9.00
2022-10-13T08:54:25.498Z,9.07
2022-10-13T08:57:50.485Z,8.67
2022-10-13T09:01:17.022Z,9.27
2022-10-13T09:04:49.330Z,8.30
2022-10-13T09:08:20.097Z,8.47
2022-10-13T09:11:45.674Z,9.50
2022-10-13T09:15:12.889Z,8.40
2022-10-13T09:18:37.540Z,9.47
2022-10-13T09:22:17.307Z,9.10
2022-10-13T09:25:42.934Z,9.30
2022-10-13T09:29:11.118Z,9.70
2022-10-13T09:32:37.512Z,9.90
2022-10-13T09:36:23.251Z,10.30
2022-10-13T09:39:48.001Z,10.03
2022-10-13T09:43:31.248Z,9.50
2022-10-13T09:46:57.907Z,10.13
2022-10-13T09:50:25.621Z,10.37
2022-10-13T09:53:50.534Z,8.97
2022-10-13T09:57:20.394Z,10.97
2022-10-13T10:00:44.411Z,9.47
2022-10-13T10:04:14.433Z,10.47
2022-10-13T10:07:41.237Z,10.03
2022-10-13T10:11:11.248Z,9.53
2022-10-13T10:14:39.304Z,9.90
2022-10-13T10:18:08.686Z,10.07
2022-10-13T10:21:37.913Z,9.87
2022-10-13T10:25:13.957Z,8.53
2022-10-13T10:29:00.717Z,10.40
2022-10-13T10:32:29.867Z,9.73
2022-10-13T10:36:02.105Z,9.27
2022-10-13T10:39:33.049Z,9.90
2022-10-13T10:43:24.177Z,9.43
2022-10-13T10:46:50.062Z,8.67
2022-10-13T10:50:17.156Z,9.47
2022-10-13T10:53:50.860Z,8.40
2022-10-13T10:57:21.152Z,9.10
2022-10-13T11:00:54.285Z,10.00
2022-10-13T11:04:43.928Z,9.47
2022-10-13T11:08:27.778Z,8.13
2022-10-13T11:11:51.453Z,9.50
2022-10-13T11:15:23.225Z,9.10
2022-10-13T11:19:09.162Z,9.30
2022-10-13T11:22:32.730Z,9.10
2022-10-13T11:26:41.416Z,9.67
2022-10-13T11:30:06.817Z,8.63
2022-10-13T11:33:35.375Z,8.47
2022-10-13T11:37:01.251Z,8.80
2022-10-13T11:40:28.836Z,8.37
2022-10-13T11:44:02.112Z,9.10
2022-10-13T11:47:53.918Z,9.80
2022-10-13T11:51:25.580Z,8.80
2022-10-13T11:54:52.748Z,8.90
2022-10-13T11:58:20.296Z,8.97
2022-10-13T12:01:46.520Z,8.37
2022-10-13T12:05:22.490Z,7.90
2022-10-13T12:08:48.804Z,8.60
2022-10-13T12:12:16.992Z,7.77
2022-10-13T12:15:44.139Z,8.50
2022-10-13T12:19:10.936Z,8.37
2022-10-13T12:22:40.129Z,6.90
2022-10-13T12:26:04.256Z,8.77
2022-10-13T12:29:33.467Z,7.17
2022-10-13T12:33:01.366Z,7.23
2022-10-13T12:36:31.030Z,8.00
2022-10-13T12:39:56.561Z,8.23
2022-10-13T12:43:26.201Z,8.40
2022-10-13T12:46:52.195Z,7.00
2022-10-13T12:50:24.241Z,6.47
2022-10-13T12:53:49.630Z,7.40
2022-10-13T12:57:19.369Z,7.37
2022-10-13T13:00:42.924Z,7.80
2022-10-13T13:04:18.565Z,6.37
2022-10-13T13:07:42.130Z,6.97
2022-10-13T13:11:09.034Z,7.30
2022-10-13T13:14:38.346Z,5.03
2022-10-13T13:18:36.613Z,5.93
2022-10-13T13:22:00.163Z,5.20
2022-10-13T13:25:24.216Z,6.50
2022-10-13T13:28:51.498Z,6.40
2022-10-13T13:32:19.855Z,6.20
2022-10-13T13:35:43.769Z,6.20
2022-10-13T13:39:07.792Z,6.20
2022-10-13T13:42:31.765Z,6.10
2022-10-13T13:45:56.812Z,6.93
2022-10-13T13:49:20.309Z,6.50
2022-10-13T13:52:44.148Z,5.40
2022-10-13T13:56:14.151Z,5.50
2022-10-13T13:59:37.729Z,5.30
2022-10-13T14:03:02.711Z,6.93
2022-10-13T14:06:26.212Z,5.37
2022-10-13T14:09:49.846Z,5.97
2022-10-13T14:13:13.384Z,5.73
2022-10-13T14:16:37.053Z,6.20
2022-10-13T14:20:04.283Z,5.80
2022-10-13T14:23:33.841Z,6.00
2022-10-13T14:26:57.420Z,5.30
2022-10-13T14:30:21.061Z,5.23
2022-10-13T14:33:44.805Z,5.33
2022-10-13T14:37:09.781Z,5.87
2022-10-13T14:40:33.369Z,5.77
2022-10-13T14:43:57.796Z,6.93
2022-10-13T14:47:21.668Z,5.60
2022-10-13T14:50:45.466Z,5.93
2022-10-13T14:54:10.789Z,5.83
2022-10-13T14:57:34.303Z,5.37
2022-10-13T15:00:57.801Z,6.43
2022-10-13T15:04:21.705Z,6.30
2022-10-13T15:07:45.276Z,6.70
2022-10-13T15:11:10.831Z,7.53
2022-10-13T15:14:34.433Z,6.70
2022-10-13T15:17:58.102Z,6.13
2022-10-13T15:21:21.936Z,6.23
2022-10-13T15:24:45.639Z,6.90
2022-10-13T15:28:10.597Z,5.07
2022-10-13T15:31:34.139Z,5.93
2022-10-13T15:34:57.740Z,5.30
2022-10-13T15:38:22.373Z,6.17
2022-10-13T15:41:46.028Z,5.37
2022-10-13T15:45:12.057Z,21.63
2022-10-13T15:48:35.858Z,8.30
2022-10-13T15:51:59.448Z,12.53
2022-10-13T15:55:23.141Z,6.30
2022-10-13T15:58:46.719Z,16.07
2022-10-13T16:02:12.065Z,6.77
2022-10-13T16:05:35.744Z,9.33
2022-10-13T16:08:59.796Z,6.87
2022-10-13T16:12:24.664Z,8.97
2022-10-13T16:15:58.013Z,8.97
2022-10-13T16:19:23.324Z,11.37
2022-10-13T16:22:47.159Z,11.43
2022-10-13T16:26:11.578Z,12.20
2022-10-13T16:29:35.097Z,11.27
2022-10-13T16:32:58.989Z,12.63
2022-10-13T16:36:25.177Z,14.00
2022-10-13T16:39:51.771Z,13.30
2022-10-13T16:43:15.707Z,16.43
2022-10-13T16:46:45.018Z,12.50
2022-10-13T16:50:10.154Z,14.00
2022-10-13T16:53:35.401Z,14.73
2022-10-13T16:56:59.201Z,14.37
2022-10-13T17:00:22.997Z,14.20
2022-10-13T17:03:47.847Z,15.40
2022-10-13T17:07:12.118Z,14.30
2022-10-13T17:10:37.060Z,14.63
2022-10-13T17:14:01.491Z,14.53
2022-10-13T17:17:28.490Z,15.20
2022-10-13T17:20:53.508Z,16.17
2022-10-13T17:24:18.059Z,13.87
2022-10-13T17:27:43.046Z,14.70
2022-10-13T17:31:09.355Z,14.87
2022-10-13T17:34:32.859Z,14.33
2022-10-13T17:37:57.103Z,14.20
2022-10-13T17:41:21.471Z,12.53
2022-10-13T17:44:48.832Z,13.83
2022-10-13T17:48:14.433Z,14.60
2022-10-13T17:51:39.082Z,14.10
2022-10-13T17:55:02.652Z,14.90
2022-10-13T17:58:27.152Z,15.30
2022-10-13T18:01:52.020Z,15.10
2022-10-13T18:05:15.811Z,16.37
2022-10-13T18:08:39.420Z,15.50
2022-10-13T18:12:02.975Z,15.03
2022-10-13T18:15:26.536Z,14.57
2022-10-13T18:18:52.952Z,14.57
2022-10-13T18:22:17.324Z,14.80
2022-10-13T18:25:40.876Z,15.40
2022-10-13T18:29:06.326Z,15.20
2022-10-13T18:32:29.886Z,14.40
2022-10-13T18:35:54.778Z,12.67
2022-10-13T18:39:20.063Z,15.57
2022-10-13T18:42:50.560Z,14.30
2022-10-13T18:46:16.696Z,14.10
2022-10-13T18:49:42.018Z,14.13
2022-10-13T18:53:06.862Z,13.63
2022-10-13T18:56:33.381Z,14.10
2022-10-13T18:59:56.953Z,12.37
2022-10-13T19:03:25.557Z,13.70
2022-10-13T19:06:49.166Z,14.93
2022-10-13T19:10:14.044Z,15.17
2022-10-13T19:13:38.768Z,13.40
2022-10-13T19:17:02.549Z,13.90
2022-10-13T19:20:26.568Z,14.70
2022-10-13T19:23:51.517Z,13.30
2022-10-13T19:27:19.600Z,15.23
2022-10-13T19:30:43.523Z,13.73
2022-10-13T19:34:07.168Z,15.27
2022-10-13T19:37:32.130Z,14.33
2022-10-13T19:40:55.736Z,13.73
2022-10-13T19:44:21.554Z,15.50
2022-10-13T19:47:45.202Z,13.50
2022-10-13T19:51:10.224Z,14.50
2022-10-13T19:54:35.608Z,13.80
2022-10-13T19:57:59.169Z,15.17
2022-10-13T20:01:24.413Z,13.53
2022-10-13T20:04:48.113Z,12.77
2022-10-13T20:08:13.057Z,13.90
2022-10-13T20:11:36.626Z,12.93
2022-10-13T20:15:00.151Z,13.97
2022-10-13T20:18:25.077Z,12.47
2022-10-13T20:21:51.415Z,13.50
2022-10-13T20:25:19.478Z,12.87
2022-10-13T20:28:44.946Z,12.33
2022-10-13T20:32:08.757Z,13.07
2022-10-13T20:35:33.726Z,12.67
2022-10-13T20:38:57.392Z,12.73
2022-10-13T20:42:20.989Z,13.70
2022-10-13T20:45:44.503Z,14.07
2022-10-13T20:49:11.308Z,13.97
2022-10-13T20:52:38.415Z,14.50
2022-10-13T20:56:03.681Z,16.97
2022-10-13T20:59:27.520Z,16.50
2022-10-13T21:02:51.092Z,16.17
2022-10-13T21:06:15.670Z,15.80
2022-10-13T21:09:40.696Z,16.30
2022-10-13T21:13:04.306Z,15.90
2022-10-13T21:16:29.155Z,15.73
2022-10-13T21:19:53.014Z,16.97
2022-10-13T21:23:16.618Z,14.97
2022-10-13T21:26:41.897Z,14.50
2022-10-13T21:30:11.277Z,14.20
2022-10-13T21:33:35.826Z,15.27
2022-10-13T21:36:59.472Z,15.30
2022-10-13T21:40:23.203Z,18.47
2022-10-13T21:43:48.084Z,17.80
2022-10-13T21:47:11.658Z,18.23
2022-10-13T21:50:35.333Z,19.13
2022-10-13T21:54:00.620Z,17.87
2022-10-13T21:57:26.659Z,17.67
2022-10-13T22:00:51.894Z,17.00
2022-10-13T22:04:15.868Z,18.37
2022-10-13T22:07:39.385Z,18.20
2022-10-13T22:11:02.916Z,18.70
2022-10-13T22:14:26.579Z,19.50
2022-10-13T22:17:51.494Z,19.50
2022-10-13T22:21:18.448Z,18.83
2022-10-13T22:24:42.004Z,19.97
2022-10-13T22:28:05.580Z,21.10
2022-10-13T22:31:33.304Z,23.10
2022-10-13T22:35:03.846Z,22.60
2022-10-13T22:38:27.486Z,22.07
2022-10-13T22:41:51.336Z,24.20
2022-10-13T22:45:15.016Z,23.50
2022-10-13T22:48:40.849Z,24.07
2022-10-13T22:52:07.287Z,25.47
2022-10-13T22:55:31.521Z,26.70
2022-10-13T22:58:58.078Z,21.80
2022-10-13T23:02:22.508Z,25.93
2022-10-13T23:05:48.765Z,25.83
2022-10-13T23:09:14.960Z,23.57
2022-10-13T23:12:38.626Z,23.07
2022-10-13T23:16:03.196Z,25.53
2022-10-13T23:19:31.659Z,24.23
2022-10-13T23:22:55.593Z,24.53
2022-10-13T23:26:20.978Z,24.80
2022-10-13T23:29:44.585Z,24.73
2022-10-13T23:33:08.229Z,24.23
2022-10-13T23:36:33.814Z,29.30
2022-10-13T23:39:57.472Z,28.60
2022-10-13T23:43:23.074Z,28.30
2022-10-13T23:46:47.072Z,28.90
2022-10-13T23:50:13.449Z,28.63
2022-10-13T23:53:38.610Z,28.27
2022-10-13T23:57:02.186Z,29.17
